Terminal Aerodrome Forecast
Issued by NWS

Home | Current Version | Previous Version | Text Only | Print | Product List | Glossary On
Versions: 1 2 3 4 5 6 7 8 9 10 11 12 13 14 15 16 17 18 19 20 21 22 23 24 25
000
FTUS41 KRLX 211900 AAA
TAFCKB
TAF AMD
KCKB 211938Z 2120/2218 23011KT P6SM BKN025
      TEMPO 2120/2121 27015G30KT 1SM TSRA BKN015CB
     FM212100 27010G18KT P6SM VCTS BKN035CB
     FM212200 28009G15KT P6SM BKN035
     FM220300 29007KT P6SM BKN020
     FM221600 30006KT P6SM SCT045=

USA.gov is the U.S. government's official web portal to all federal, state and local government web resources and services.